createdAt,value
2019-03-17T00:04:56.857Z,65.96
2019-03-17T00:09:59.571Z,66.21
2019-03-17T00:15:05.516Z,66.40
2019-03-17T00:20:07.014Z,66.10
2019-03-17T00:25:10.320Z,66.05
2019-03-17T00:30:13.301Z,66.01
2019-03-17T00:35:16.012Z,66.44
2019-03-17T00:40:18.722Z,66.53
2019-03-17T00:45:21.415Z,66.59
2019-03-17T00:50:24.135Z,66.75
2019-03-17T00:55:26.839Z,66.72
2019-03-17T01:00:30.550Z,66.72
2019-03-17T01:05:33.242Z,66.46
2019-03-17T01:10:35.941Z,66.60
2019-03-17T01:15:38.644Z,66.79
2019-03-17T01:20:41.348Z,67.09
2019-03-17T01:25:44.058Z,66.85
2019-03-17T01:30:46.771Z,66.87
2019-03-17T01:35:49.498Z,66.99
2019-03-17T01:40:52.222Z,66.91
2019-03-17T01:45:54.915Z,67.02
2019-03-17T01:50:57.622Z,67.19
2019-03-17T01:56:00.346Z,67.38
2019-03-17T02:01:03.177Z,67.46
2019-03-17T02:06:05.862Z,67.89
2019-03-17T02:11:08.566Z,67.93
2019-03-17T02:16:11.286Z,67.87
2019-03-17T02:21:13.980Z,67.39
2019-03-17T02:26:16.679Z,67.68
2019-03-17T02:31:19.459Z,67.45
2019-03-17T02:36:22.195Z,67.74
2019-03-17T02:41:24.887Z,68.10
2019-03-17T02:46:27.610Z,68.08
2019-03-17T02:51:30.302Z,68.07
2019-03-17T02:56:32.995Z,68.00
2019-03-17T03:01:35.710Z,67.59
2019-03-17T03:06:38.430Z,66.91
2019-03-17T03:11:41.118Z,66.92
2019-03-17T03:16:43.822Z,66.61
2019-03-17T03:21:46.520Z,66.85
2019-03-17T03:26:49.329Z,66.73
2019-03-17T03:31:52.048Z,66.44
2019-03-17T03:36:54.830Z,66.64
2019-03-17T03:41:57.529Z,66.84
2019-03-17T03:47:00.225Z,66.60
2019-03-17T03:52:02.919Z,66.28
2019-03-17T03:57:05.610Z,66.05
2019-03-17T04:02:08.322Z,65.78
2019-03-17T04:07:11.292Z,65.87
2019-03-17T04:12:14.247Z,65.78
2019-03-17T04:17:17.321Z,66.10
2019-03-17T04:22:20.349Z,65.85
2019-03-17T04:27:23.307Z,65.86
2019-03-17T04:32:26.357Z,66.05
2019-03-17T04:37:29.389Z,65.84
2019-03-17T04:42:32.239Z,66.05
2019-03-17T04:47:35.196Z,65.95
2019-03-17T04:52:38.195Z,66.48
2019-03-17T04:57:41.254Z,67.95
2019-03-17T05:02:44.186Z,69.98
2019-03-17T05:07:46.860Z,71.63
2019-03-17T05:12:49.566Z,72.12
2019-03-17T05:17:52.281Z,72.46
2019-03-17T05:22:54.984Z,71.94
2019-03-17T05:27:57.983Z,72.35
2019-03-17T05:33:00.728Z,72.47
2019-03-17T05:38:03.417Z,72.56
2019-03-17T05:43:06.120Z,73.06
2019-03-17T05:48:08.826Z,73.50
2019-03-17T05:53:11.522Z,73.77
2019-03-17T05:58:14.222Z,73.24
2019-03-17T06:03:16.943Z,73.55
2019-03-17T06:08:21.281Z,73.69
2019-03-17T06:13:24.042Z,74.54
2019-03-17T06:18:26.725Z,75.24
2019-03-17T06:23:29.465Z,75.34
2019-03-17T06:28:32.160Z,76.14
2019-03-17T06:33:34.844Z,77.03
2019-03-17T06:38:37.973Z,77.75
2019-03-17T06:43:40.908Z,78.80
2019-03-17T06:48:43.658Z,79.33
2019-03-17T06:53:55.804Z,78.95
2019-03-17T06:58:51.001Z,78.80
2019-03-17T07:03:53.692Z,78.61
2019-03-17T07:08:56.430Z,78.75
2019-03-17T07:13:59.229Z,79.44
2019-03-17T07:19:01.925Z,79.43
2019-03-17T07:24:04.646Z,78.85
2019-03-17T07:29:07.549Z,78.99
2019-03-17T07:34:11.050Z,78.71
2019-03-17T07:39:13.884Z,78.75
2019-03-17T07:44:16.670Z,78.86
2019-03-17T07:49:20.240Z,78.40
2019-03-17T07:54:29.232Z,78.36
2019-03-17T07:59:42.417Z,78.59
2019-03-17T08:04:49.902Z,78.90
2019-03-17T08:09:56.497Z,79.23
2019-03-17T08:15:01.395Z,76.21
2019-03-17T08:20:07.490Z,77.16
2019-03-17T08:25:12.021Z,79.21
2019-03-17T08:30:16.331Z,80.13
2019-03-17T08:35:20.472Z,80.63
2019-03-17T08:40:24.202Z,80.29
2019-03-17T08:45:28.695Z,79.79
2019-03-17T08:50:31.581Z,80.21
2019-03-17T08:55:34.351Z,80.36
2019-03-17T09:00:37.609Z,79.68
2019-03-17T09:05:40.390Z,79.50
2019-03-17T09:10:43.173Z,78.87
2019-03-17T09:15:45.898Z,78.84
2019-03-17T09:20:48.595Z,78.88
2019-03-17T09:25:51.375Z,78.05
2019-03-17T09:30:54.082Z,76.74
2019-03-17T09:35:56.788Z,76.36
2019-03-17T09:40:59.488Z,74.97
2019-03-17T09:46:02.213Z,74.00
2019-03-17T09:51:04.898Z,73.10
2019-03-17T09:56:07.589Z,72.74
2019-03-17T10:01:10.294Z,73.06
2019-03-17T10:06:13.045Z,71.55
2019-03-17T10:11:15.795Z,70.72
2019-03-17T10:16:18.494Z,70.90
2019-03-17T10:21:21.186Z,70.55
2019-03-17T10:26:23.876Z,69.12
2019-03-17T10:31:26.583Z,69.17
2019-03-17T10:36:29.496Z,69.06
2019-03-17T10:41:32.311Z,68.64
2019-03-17T10:46:35.040Z,68.63
2019-03-17T10:51:37.855Z,69.01
2019-03-17T10:56:40.648Z,68.48
2019-03-17T11:01:43.344Z,68.17
2019-03-17T11:06:46.055Z,67.68
2019-03-17T11:11:48.753Z,67.14
2019-03-17T11:16:51.522Z,66.20
2019-03-17T11:21:54.214Z,65.84
2019-03-17T11:26:56.911Z,65.19
2019-03-17T11:31:59.617Z,65.36
2019-03-17T11:37:02.325Z,65.30
2019-03-17T11:42:05.095Z,64.80
2019-03-17T11:47:07.998Z,65.64
2019-03-17T11:52:10.730Z,65.50
2019-03-17T11:57:13.466Z,65.90
2019-03-17T12:02:26.108Z,65.37
2019-03-17T12:07:20.774Z,64.12
2019-03-17T12:12:23.533Z,70.35
2019-03-17T12:17:26.345Z,73.95
2019-03-17T12:22:29.063Z,76.12
2019-03-17T12:27:31.778Z,78.17
2019-03-17T12:32:34.502Z,78.57
2019-03-17T12:37:37.274Z,78.53
2019-03-17T12:42:40.017Z,77.86
2019-03-17T12:47:43.869Z,77.31
2019-03-17T12:52:46.637Z,76.03
2019-03-17T12:57:49.375Z,75.85
2019-03-17T13:02:52.076Z,73.84
2019-03-17T13:07:55.067Z,73.70
2019-03-17T13:12:57.784Z,74.33
2019-03-17T13:18:00.493Z,70.96
2019-03-17T13:23:03.201Z,70.12
2019-03-17T13:28:06.028Z,69.02
2019-03-17T13:33:08.718Z,68.12
2019-03-17T13:38:11.528Z,68.14
2019-03-17T13:43:14.256Z,65.99
2019-03-17T13:48:16.960Z,70.95
2019-03-17T13:53:19.656Z,71.53
2019-03-17T13:58:22.354Z,73.06
2019-03-17T14:03:25.069Z,71.19
2019-03-17T14:08:27.773Z,69.69
2019-03-17T14:13:30.467Z,69.32
2019-03-17T14:18:33.168Z,69.05
2019-03-17T14:23:35.874Z,67.21
2019-03-17T14:28:38.570Z,65.91
2019-03-17T14:33:41.259Z,68.62
2019-03-17T14:38:43.966Z,71.15
2019-03-17T14:43:46.654Z,73.49
2019-03-17T14:48:49.361Z,73.47
2019-03-17T14:53:52.063Z,73.35
2019-03-17T14:58:54.756Z,73.32
2019-03-17T15:03:57.448Z,73.66
2019-03-17T15:09:00.154Z,72.80
2019-03-17T15:14:03.010Z,72.23
2019-03-17T15:19:05.722Z,71.64
2019-03-17T15:24:08.397Z,70.61
2019-03-17T15:29:11.087Z,71.08
2019-03-17T15:34:13.768Z,70.16
2019-03-17T15:39:16.497Z,70.83
2019-03-17T15:44:19.207Z,71.14
2019-03-17T15:49:21.897Z,71.29
2019-03-17T15:54:24.584Z,70.97
2019-03-17T15:59:27.290Z,69.94
2019-03-17T16:04:30.007Z,67.88
2019-03-17T16:09:32.686Z,67.27
2019-03-17T16:14:35.396Z,66.88
2019-03-17T16:19:38.101Z,67.21
2019-03-17T16:24:40.827Z,67.25
2019-03-17T16:29:43.521Z,67.03
2019-03-17T16:34:46.224Z,67.10
2019-03-17T16:39:48.944Z,67.03
2019-03-17T16:44:51.646Z,67.79
2019-03-17T16:49:54.352Z,68.22
2019-03-17T16:54:57.056Z,68.39
2019-03-17T16:59:59.782Z,68.77
2019-03-17T17:05:02.546Z,69.18
2019-03-17T17:10:06.900Z,69.90
2019-03-17T17:15:19.362Z,69.91
2019-03-17T17:20:24.536Z,69.73
2019-03-17T17:25:27.239Z,70.21
2019-03-17T17:30:29.939Z,70.35
2019-03-17T17:35:32.635Z,70.53
2019-03-17T17:40:35.337Z,70.80
2019-03-17T17:45:38.038Z,71.14
2019-03-17T17:50:40.721Z,71.29
2019-03-17T17:55:43.425Z,71.33
2019-03-17T18:00:46.615Z,71.74
2019-03-17T18:05:49.309Z,71.92
2019-03-17T18:10:52.034Z,71.81
2019-03-17T18:15:54.744Z,72.01
2019-03-17T18:20:57.435Z,72.26
2019-03-17T18:26:00.138Z,72.64
2019-03-17T18:31:02.936Z,72.63
2019-03-17T18:36:05.694Z,73.00
2019-03-17T18:41:08.456Z,72.64
2019-03-17T18:46:11.151Z,72.27
2019-03-17T18:51:13.848Z,71.48
2019-03-17T18:56:16.586Z,71.26
2019-03-17T19:01:19.290Z,70.82
2019-03-17T19:06:21.995Z,70.37
2019-03-17T19:11:24.685Z,70.25
2019-03-17T19:16:27.372Z,70.09
2019-03-17T19:21:30.070Z,70.31
2019-03-17T19:26:33.185Z,70.24
2019-03-17T19:31:36.182Z,70.64
2019-03-17T19:36:39.142Z,70.64
2019-03-17T19:41:41.841Z,70.55
2019-03-17T19:46:44.541Z,70.78
2019-03-17T19:51:47.242Z,71.13
2019-03-17T19:56:50.053Z,71.21
2019-03-17T20:01:52.821Z,71.12
2019-03-17T20:06:56.347Z,71.13
2019-03-17T20:11:59.056Z,71.00
2019-03-17T20:17:01.754Z,71.61
2019-03-17T20:22:04.664Z,71.85
2019-03-17T20:27:07.334Z,71.61
2019-03-17T20:32:10.016Z,71.16
2019-03-17T20:37:12.711Z,71.43
2019-03-17T20:42:15.413Z,71.20
2019-03-17T20:47:18.115Z,70.78
2019-03-17T20:52:20.806Z,70.49
2019-03-17T20:57:23.511Z,70.34
2019-03-17T21:02:26.208Z,69.91
2019-03-17T21:07:28.908Z,69.50
2019-03-17T21:12:31.600Z,68.92
2019-03-17T21:17:34.295Z,68.71
2019-03-17T21:22:37.015Z,69.12
2019-03-17T21:27:39.736Z,69.56
2019-03-17T21:32:42.472Z,69.19
2019-03-17T21:37:45.218Z,68.65
2019-03-17T21:42:48.009Z,68.77
2019-03-17T21:47:50.725Z,68.95
2019-03-17T21:52:53.427Z,69.15
2019-03-17T21:57:56.221Z,69.77
2019-03-17T22:02:58.924Z,70.07
2019-03-17T22:08:01.638Z,70.38
2019-03-17T22:13:04.337Z,71.08
2019-03-17T22:18:07.037Z,70.85
2019-03-17T22:23:09.719Z,70.85
2019-03-17T22:28:12.416Z,71.20
2019-03-17T22:33:15.103Z,71.81
2019-03-17T22:38:17.808Z,71.78
2019-03-17T22:43:20.494Z,72.10
2019-03-17T22:48:23.223Z,72.27
2019-03-17T22:53:25.922Z,72.32
2019-03-17T22:58:28.649Z,72.44
2019-03-17T23:03:31.338Z,72.43
2019-03-17T23:08:34.038Z,72.23
2019-03-17T23:13:36.725Z,72.64
2019-03-17T23:18:39.422Z,72.79
2019-03-17T23:23:42.112Z,73.00
2019-03-17T23:28:44.808Z,73.10
2019-03-17T23:33:47.481Z,73.48
2019-03-17T23:38:50.181Z,73.58
2019-03-17T23:43:52.901Z,73.80
2019-03-17T23:48:55.640Z,73.88
2019-03-17T23:53:58.374Z,73.59
2019-03-17T23:59:01.085Z,73.76
